sensor_id;sensor_type;location;lat;lon;timestamp;P1;durP1;ratioP1;P2;durP2;ratioP2
55190;SDS011;41070;50.360;18.742;2023-09-19T02:59:36;12.60;;;9.90;;
55190;SDS011;41070;50.360;18.742;2023-09-19T03:02:07;15.90;;;9.90;;
55190;SDS011;41070;50.360;18.742;2023-09-19T03:04:37;11.90;;;9.80;;
55190;SDS011;41070;50.360;18.742;2023-09-19T03:07:05;12.10;;;9.70;;
55190;SDS011;41070;50.360;18.742;2023-09-19T03:09:33;12.30;;;11.00;;
55190;SDS011;41070;50.360;18.742;2023-09-19T03:12:21;11.70;;;10.20;;
55190;SDS011;41070;50.360;18.742;2023-09-19T03:14:49;12.40;;;10.10;;
55190;SDS011;41070;50.360;18.742;2023-09-19T03:17:18;12.40;;;9.90;;
55190;SDS011;41070;50.360;18.742;2023-09-19T03:19:46;12.30;;;9.60;;
55190;SDS011;41070;50.360;18.742;2023-09-19T03:22:14;11.00;;;9.60;;
55190;SDS011;41070;50.360;18.742;2023-09-19T03:24:42;13.70;;;10.50;;
55190;SDS011;41070;50.360;18.742;2023-09-19T03:27:11;12.40;;;9.80;;
55190;SDS011;41070;50.360;18.742;2023-09-19T03:29:44;13.50;;;10.10;;
55190;SDS011;41070;50.360;18.742;2023-09-19T03:32:29;13.90;;;10.00;;
55190;SDS011;41070;50.360;18.742;2023-09-19T03:34:58;12.00;;;10.30;;
55190;SDS011;41070;50.360;18.742;2023-09-19T03:37:26;11.90;;;10.60;;
55190;SDS011;41070;50.360;18.742;2023-09-19T03:39:53;12.20;;;9.90;;
55190;SDS011;41070;50.360;18.742;2023-09-19T03:42:21;11.80;;;10.40;;
55190;SDS011;41070;50.360;18.742;2023-09-19T03:44:52;14.40;;;10.70;;
55190;SDS011;41070;50.360;18.742;2023-09-19T03:47:21;14.70;;;10.90;;
55190;SDS011;41070;50.360;18.742;2023-09-19T03:49:48;13.30;;;10.80;;
55190;SDS011;41070;50.360;18.742;2023-09-19T03:52:16;11.90;;;10.50;;
55190;SDS011;41070;50.360;18.742;2023-09-19T03:54:44;12.50;;;10.80;;
55190;SDS011;41070;50.360;18.742;2023-09-19T03:57:11;11.40;;;10.20;;
55190;SDS011;41070;50.360;18.742;2023-09-19T03:59:42;12.00;;;10.40;;
55190;SDS011;41070;50.360;18.742;2023-09-19T04:02:10;14.30;;;10.80;;
55190;SDS011;41070;50.360;18.742;2023-09-19T04:04:48;12.20;;;10.90;;
55190;SDS011;41070;50.360;18.742;2023-09-19T04:07:16;15.40;;;11.70;;
55190;SDS011;41070;50.360;18.742;2023-09-19T04:09:45;17.90;;;12.60;;
55190;SDS011;41070;50.360;18.742;2023-09-19T04:12:13;17.70;;;12.20;;
55190;SDS011;41070;50.360;18.742;2023-09-19T04:14:44;15.60;;;11.50;;
55190;SDS011;41070;50.360;18.742;2023-09-19T04:17:18;14.00;;;10.60;;
55190;SDS011;41070;50.360;18.742;2023-09-19T04:19:45;13.30;;;10.70;;
55190;SDS011;41070;50.360;18.742;2023-09-19T04:22:13;13.80;;;10.30;;
55190;SDS011;41070;50.360;18.742;2023-09-19T04:24:41;23.00;;;13.40;;
55190;SDS011;41070;50.360;18.742;2023-09-19T04:27:09;19.70;;;12.10;;
55190;SDS011;41070;50.360;18.742;2023-09-19T04:29:38;20.20;;;13.10;;
55190;SDS011;41070;50.360;18.742;2023-09-19T04:32:08;18.10;;;12.20;;
55190;SDS011;41070;50.360;18.742;2023-09-19T04:34:36;14.30;;;11.80;;
55190;SDS011;41070;50.360;18.742;2023-09-19T04:37:04;14.10;;;10.60;;
55190;SDS011;41070;50.360;18.742;2023-09-19T04:39:32;13.90;;;10.40;;
55190;SDS011;41070;50.360;18.742;2023-09-19T04:42:00;16.00;;;11.30;;
55190;SDS011;41070;50.360;18.742;2023-09-19T04:44:29;15.70;;;12.20;;
55190;SDS011;41070;50.360;18.742;2023-09-19T04:46:56;15.90;;;10.90;;
55190;SDS011;41070;50.360;18.742;2023-09-19T04:49:26;14.40;;;11.70;;
55190;SDS011;41070;50.360;18.742;2023-09-19T04:51:53;13.80;;;11.60;;
55190;SDS011;41070;50.360;18.742;2023-09-19T04:54:22;15.00;;;11.90;;
55190;SDS011;41070;50.360;18.742;2023-09-19T04:56:53;16.10;;;12.00;;
55190;SDS011;41070;50.360;18.742;2023-09-19T04:59:21;16.00;;;12.10;;
55190;SDS011;41070;50.360;18.742;2023-09-19T05:01:49;19.10;;;13.40;;
55190;SDS011;41070;50.360;18.742;2023-09-19T05:04:17;13.40;;;11.30;;
55190;SDS011;41070;50.360;18.742;2023-09-19T05:06:44;17.20;;;12.10;;
55190;SDS011;41070;50.360;18.742;2023-09-19T05:09:12;14.10;;;11.40;;
55190;SDS011;41070;50.360;18.742;2023-09-19T05:11:40;15.90;;;12.20;;
55190;SDS011;41070;50.360;18.742;2023-09-19T05:14:07;15.40;;;12.80;;
55190;SDS011;41070;50.360;18.742;2023-09-19T05:16:38;16.30;;;12.10;;
55190;SDS011;41070;50.360;18.742;2023-09-19T05:19:06;15.30;;;11.90;;
55190;SDS011;41070;50.360;18.742;2023-09-19T05:21:37;19.60;;;13.30;;
55190;SDS011;41070;50.360;18.742;2023-09-19T05:24:05;14.60;;;11.20;;
55190;SDS011;41070;50.360;18.742;2023-09-19T05:26:35;16.80;;;11.30;;
55190;SDS011;41070;50.360;18.742;2023-09-19T05:29:02;14.60;;;11.10;;
55190;SDS011;41070;50.360;18.742;2023-09-19T05:31:34;13.40;;;10.70;;
55190;SDS011;41070;50.360;18.742;2023-09-19T05:34:02;13.60;;;10.10;;
55190;SDS011;41070;50.360;18.742;2023-09-19T05:36:30;13.50;;;10.80;;
55190;SDS011;41070;50.360;18.742;2023-09-19T05:38:58;13.20;;;9.30;;
55190;SDS011;41070;50.360;18.742;2023-09-19T05:41:25;11.60;;;9.90;;
55190;SDS011;41070;50.360;18.742;2023-09-19T05:43:53;13.50;;;10.30;;
55190;SDS011;41070;50.360;18.742;2023-09-19T05:46:21;10.70;;;8.00;;
55190;SDS011;41070;50.360;18.742;2023-09-19T05:48:50;11.20;;;8.30;;
55190;SDS011;41070;50.360;18.742;2023-09-19T05:51:20;9.70;;;7.90;;
55190;SDS011;41070;50.360;18.742;2023-09-19T05:53:48;12.50;;;8.50;;
55190;SDS011;41070;50.360;18.742;2023-09-19T05:56:16;10.50;;;7.40;;
55190;SDS011;41070;50.360;18.742;2023-09-19T05:58:45;8.60;;;6.10;;
55190;SDS011;41070;50.360;18.742;2023-09-19T06:01:12;10.90;;;6.70;;
55190;SDS011;41070;50.360;18.742;2023-09-19T06:03:41;10.20;;;5.90;;
55190;SDS011;41070;50.360;18.742;2023-09-19T06:06:09;8.80;;;5.90;;
55190;SDS011;41070;50.360;18.742;2023-09-19T06:08:36;8.40;;;5.60;;
55190;SDS011;41070;50.360;18.742;2023-09-19T06:11:04;6.80;;;4.70;;
55190;SDS011;41070;50.360;18.742;2023-09-19T06:13:33;8.60;;;5.30;;
55190;SDS011;41070;50.360;18.742;2023-09-19T06:16:02;8.00;;;5.00;;
55190;SDS011;41070;50.360;18.742;2023-09-19T06:18:32;6.60;;;4.70;;
55190;SDS011;41070;50.360;18.742;2023-09-19T06:21:00;5.90;;;4.50;;
55190;SDS011;41070;50.360;18.742;2023-09-19T06:23:31;5.80;;;4.10;;
55190;SDS011;41070;50.360;18.742;2023-09-19T06:25:59;6.10;;;3.90;;
55190;SDS011;41070;50.360;18.742;2023-09-19T06:28:27;6.50;;;4.40;;
55190;SDS011;41070;50.360;18.742;2023-09-19T06:30:55;6.60;;;4.10;;
55190;SDS011;41070;50.360;18.742;2023-09-19T06:33:23;5.50;;;3.60;;
55190;SDS011;41070;50.360;18.742;2023-09-19T06:35:51;4.80;;;3.20;;
55190;SDS011;41070;50.360;18.742;2023-09-19T06:38:25;3.60;;;2.80;;
55190;SDS011;41070;50.360;18.742;2023-09-19T06:40:53;4.90;;;2.90;;
55190;SDS011;41070;50.360;18.742;2023-09-19T06:43:20;5.20;;;3.00;;
55190;SDS011;41070;50.360;18.742;2023-09-19T06:45:48;4.70;;;2.60;;
55190;SDS011;41070;50.360;18.742;2023-09-19T06:48:16;6.10;;;3.10;;
55190;SDS011;41070;50.360;18.742;2023-09-19T06:50:44;4.10;;;2.40;;
55190;SDS011;41070;50.360;18.742;2023-09-19T06:53:14;5.90;;;3.10;;
55190;SDS011;41070;50.360;18.742;2023-09-19T06:55:42;5.90;;;2.90;;
55190;SDS011;41070;50.360;18.742;2023-09-19T06:58:14;7.30;;;3.20;;
55190;SDS011;41070;50.360;18.742;2023-09-19T07:00:43;7.60;;;3.60;;
55190;SDS011;41070;50.360;18.742;2023-09-19T07:03:10;8.60;;;3.00;;
55190;SDS011;41070;50.360;18.742;2023-09-19T07:05:42;5.60;;;2.70;;
55190;SDS011;41070;50.360;18.742;2023-09-19T07:08:10;5.50;;;2.90;;
55190;SDS011;41070;50.360;18.742;2023-09-19T07:10:39;4.00;;;2.50;;
55190;SDS011;41070;50.360;18.742;2023-09-19T07:13:08;4.50;;;2.80;;
55190;SDS011;41070;50.360;18.742;2023-09-19T07:15:37;3.70;;;2.80;;
55190;SDS011;41070;50.360;18.742;2023-09-19T07:18:13;5.90;;;2.90;;
55190;SDS011;41070;50.360;18.742;2023-09-19T07:20:43;3.00;;;2.10;;
55190;SDS011;41070;50.360;18.742;2023-09-19T07:23:19;5.20;;;3.00;;
55190;SDS011;41070;50.360;18.742;2023-09-19T07:25:49;4.00;;;2.50;;
55190;SDS011;41070;50.360;18.742;2023-09-19T07:28:17;4.60;;;2.60;;
55190;SDS011;41070;50.360;18.742;2023-09-19T07:30:45;4.60;;;2.30;;
55190;SDS011;41070;50.360;18.742;2023-09-19T07:33:15;3.90;;;2.30;;
55190;SDS011;41070;50.360;18.742;2023-09-19T07:35:46;6.70;;;2.00;;
55190;SDS011;41070;50.360;18.742;2023-09-19T07:38:15;2.80;;;2.00;;
55190;SDS011;41070;50.360;18.742;2023-09-19T07:40:43;4.00;;;1.80;;
55190;SDS011;41070;50.360;18.742;2023-09-19T07:43:13;2.20;;;1.70;;
55190;SDS011;41070;50.360;18.742;2023-09-19T07:45:40;4.30;;;2.10;;
55190;SDS011;41070;50.360;18.742;2023-09-19T07:48:08;2.90;;;1.60;;
55190;SDS011;41070;50.360;18.742;2023-09-19T07:50:40;3.40;;;1.70;;
55190;SDS011;41070;50.360;18.742;2023-09-19T07:53:10;2.60;;;1.40;;
55190;SDS011;41070;50.360;18.742;2023-09-19T07:55:39;1.30;;;1.20;;
55190;SDS011;41070;50.360;18.742;2023-09-19T07:58:10;4.70;;;1.70;;
55190;SDS011;41070;50.360;18.742;2023-09-19T08:00:37;3.20;;;1.50;;
55190;SDS011;41070;50.360;18.742;2023-09-19T08:03:05;2.50;;;1.70;;
55190;SDS011;41070;50.360;18.742;2023-09-19T08:05:35;3.10;;;1.40;;
55190;SDS011;41070;50.360;18.742;2023-09-19T08:08:03;3.10;;;1.70;;
55190;SDS011;41070;50.360;18.742;2023-09-19T08:10:34;2.60;;;1.90;;
55190;SDS011;41070;50.360;18.742;2023-09-19T08:13:03;4.40;;;1.90;;
55190;SDS011;41070;50.360;18.742;2023-09-19T08:15:33;3.30;;;1.70;;
55190;SDS011;41070;50.360;18.742;2023-09-19T08:18:01;4.00;;;2.10;;
55190;SDS011;41070;50.360;18.742;2023-09-19T08:20:29;2.70;;;1.90;;
55190;SDS011;41070;50.360;18.742;2023-09-19T08:23:01;5.10;;;1.90;;
55190;SDS011;41070;50.360;18.742;2023-09-19T08:25:30;3.10;;;1.90;;
55190;SDS011;41070;50.360;18.742;2023-09-19T08:27:58;4.20;;;2.00;;
55190;SDS011;41070;50.360;18.742;2023-09-19T08:30:27;2.40;;;1.80;;
55190;SDS011;41070;50.360;18.742;2023-09-19T08:32:57;2.70;;;1.70;;
55190;SDS011;41070;50.360;18.742;2023-09-19T08:35:26;4.30;;;2.30;;
55190;SDS011;41070;50.360;18.742;2023-09-19T08:37:56;3.60;;;2.30;;
55190;SDS011;41070;50.360;18.742;2023-09-19T08:40:23;5.40;;;2.40;;
55190;SDS011;41070;50.360;18.742;2023-09-19T08:42:55;4.60;;;2.40;;
55190;SDS011;41070;50.360;18.742;2023-09-19T08:45:24;3.30;;;2.30;;
55190;SDS011;41070;50.360;18.742;2023-09-19T08:50:33;4.60;;;2.50;;
55190;SDS011;41070;50.360;18.742;2023-09-19T08:53:10;4.60;;;2.10;;
55190;SDS011;41070;50.360;18.742;2023-09-19T08:55:43;4.50;;;2.60;;
55190;SDS011;41070;50.360;18.742;2023-09-19T08:58:13;3.70;;;2.70;;
55190;SDS011;41070;50.360;18.742;2023-09-19T09:00:46;4.40;;;2.60;;
55190;SDS011;41070;50.360;18.742;2023-09-19T09:03:16;3.70;;;3.00;;
55190;SDS011;41070;50.360;18.742;2023-09-19T09:05:46;4.60;;;3.20;;
55190;SDS011;41070;50.360;18.742;2023-09-19T09:08:17;4.60;;;2.90;;
55190;SDS011;41070;50.360;18.742;2023-09-19T09:10:48;4.20;;;3.00;;
55190;SDS011;41070;50.360;18.742;2023-09-19T09:13:16;6.30;;;2.90;;
55190;SDS011;41070;50.360;18.742;2023-09-19T09:15:44;4.50;;;2.60;;
55190;SDS011;41070;50.360;18.742;2023-09-19T09:18:13;4.80;;;3.00;;
55190;SDS011;41070;50.360;18.742;2023-09-19T09:20:41;3.90;;;3.10;;
55190;SDS011;41070;50.360;18.742;2023-09-19T09:23:10;5.80;;;3.10;;
55190;SDS011;41070;50.360;18.742;2023-09-19T09:25:46;4.30;;;2.70;;
55190;SDS011;41070;50.360;18.742;2023-09-19T09:28:23;4.20;;;2.90;;
55190;SDS011;41070;50.360;18.742;2023-09-19T09:30:52;3.80;;;2.70;;
55190;SDS011;41070;50.360;18.742;2023-09-19T09:33:20;2.70;;;2.50;;
55190;SDS011;41070;50.360;18.742;2023-09-19T09:35:49;2.60;;;2.30;;
55190;SDS011;41070;50.360;18.742;2023-09-19T09:38:43;3.70;;;2.40;;
55190;SDS011;41070;50.360;18.742;2023-09-19T09:41:17;2.70;;;2.30;;
55190;SDS011;41070;50.360;18.742;2023-09-19T09:43:54;3.60;;;2.50;;
55190;SDS011;41070;50.360;18.742;2023-09-19T09:46:21;4.00;;;2.70;;
55190;SDS011;41070;50.360;18.742;2023-09-19T09:49:06;4.30;;;2.70;;
55190;SDS011;41070;50.360;18.742;2023-09-19T09:51:47;3.30;;;2.50;;
55190;SDS011;41070;50.360;18.742;2023-09-19T09:54:25;3.30;;;2.20;;
55190;SDS011;41070;50.360;18.742;2023-09-19T09:57:01;4.70;;;2.60;;
55190;SDS011;41070;50.360;18.742;2023-09-19T09:59:50;4.10;;;2.30;;
55190;SDS011;41070;50.360;18.742;2023-09-19T10:02:25;4.10;;;2.50;;
55190;SDS011;41070;50.360;18.742;2023-09-19T10:05:00;3.40;;;2.40;;
55190;SDS011;41070;50.360;18.742;2023-09-19T10:08:10;4.70;;;2.50;;
55190;SDS011;41070;50.360;18.742;2023-09-19T10:10:39;2.90;;;2.00;;
55190;SDS011;41070;50.360;18.742;2023-09-19T10:13:20;4.70;;;2.40;;
55190;SDS011;41070;50.360;18.742;2023-09-19T10:15:53;2.60;;;2.00;;
55190;SDS011;41070;50.360;18.742;2023-09-19T10:18:23;3.60;;;1.70;;
55190;SDS011;41070;50.360;18.742;2023-09-19T10:20:54;2.30;;;1.80;;
55190;SDS011;41070;50.360;18.742;2023-09-19T10:23:23;3.00;;;1.60;;
55190;SDS011;41070;50.360;18.742;2023-09-19T10:25:53;1.30;;;1.20;;
55190;SDS011;41070;50.360;18.742;2023-09-19T10:28:21;2.80;;;1.60;;
55190;SDS011;41070;50.360;18.742;2023-09-19T10:30:49;3.10;;;1.90;;
55190;SDS011;41070;50.360;18.742;2023-09-19T10:33:19;2.90;;;1.80;;
55190;SDS011;41070;50.360;18.742;2023-09-19T10:36:05;2.40;;;1.70;;
55190;SDS011;41070;50.360;18.742;2023-09-19T10:38:35;1.80;;;1.60;;
55190;SDS011;41070;50.360;18.742;2023-09-19T10:41:08;2.10;;;1.60;;
55190;SDS011;41070;50.360;18.742;2023-09-19T10:43:37;1.90;;;1.70;;
55190;SDS011;41070;50.360;18.742;2023-09-19T10:46:11;3.00;;;2.00;;
55190;SDS011;41070;50.360;18.742;2023-09-19T10:48:39;4.30;;;1.80;;
55190;SDS011;41070;50.360;18.742;2023-09-19T10:51:10;3.70;;;2.30;;
55190;SDS011;41070;50.360;18.742;2023-09-19T10:56:33;3.10;;;1.80;;
55190;SDS011;41070;50.360;18.742;2023-09-19T10:59:07;3.80;;;2.50;;
55190;SDS011;41070;50.360;18.742;2023-09-19T11:01:43;2.90;;;2.20;;
55190;SDS011;41070;50.360;18.742;2023-09-19T11:04:28;3.40;;;2.20;;
55190;SDS011;41070;50.360;18.742;2023-09-19T11:09:42;4.20;;;2.20;;
55190;SDS011;41070;50.360;18.742;2023-09-19T11:14:57;2.50;;;2.00;;
55190;SDS011;41070;50.360;18.742;2023-09-19T11:17:35;3.50;;;2.40;;
55190;SDS011;41070;50.360;18.742;2023-09-19T11:30:34;5.60;;;3.70;;
55190;SDS011;41070;50.360;18.742;2023-09-19T11:41:36;4.20;;;3.00;;
55190;SDS011;41070;50.360;18.742;2023-09-19T11:46:33;2.80;;;2.30;;
55190;SDS011;41070;50.360;18.742;2023-09-19T11:49:06;3.00;;;2.20;;
55190;SDS011;41070;50.360;18.742;2023-09-19T11:51:42;3.30;;;2.20;;
55190;SDS011;41070;50.360;18.742;2023-09-19T11:54:11;3.70;;;2.30;;
55190;SDS011;41070;50.360;18.742;2023-09-19T11:56:44;2.80;;;2.00;;
55190;SDS011;41070;50.360;18.742;2023-09-19T11:59:19;3.50;;;2.30;;
55190;SDS011;41070;50.360;18.742;2023-09-19T12:01:52;3.40;;;2.30;;
55190;SDS011;41070;50.360;18.742;2023-09-19T12:04:33;2.70;;;2.20;;
55190;SDS011;41070;50.360;18.742;2023-09-19T12:07:07;3.30;;;2.00;;
55190;SDS011;41070;50.360;18.742;2023-09-19T12:09:45;3.50;;;2.50;;
55190;SDS011;41070;50.360;18.742;2023-09-19T12:12:23;2.90;;;1.90;;
55190;SDS011;41070;50.360;18.742;2023-09-19T12:14:54;3.20;;;2.20;;
55190;SDS011;41070;50.360;18.742;2023-09-19T12:17:23;2.50;;;2.00;;
55190;SDS011;41070;50.360;18.742;2023-09-19T12:19:55;5.00;;;2.40;;
55190;SDS011;41070;50.360;18.742;2023-09-19T12:22:24;4.00;;;2.30;;
55190;SDS011;41070;50.360;18.742;2023-09-19T12:24:51;2.10;;;1.80;;
55190;SDS011;41070;50.360;18.742;2023-09-19T12:27:20;2.60;;;2.30;;
55190;SDS011;41070;50.360;18.742;2023-09-19T12:29:48;2.80;;;2.10;;
55190;SDS011;41070;50.360;18.742;2023-09-19T12:32:17;3.80;;;2.50;;
55190;SDS011;41070;50.360;18.742;2023-09-19T12:34:51;2.60;;;2.00;;
55190;SDS011;41070;50.360;18.742;2023-09-19T12:37:20;4.50;;;2.00;;
55190;SDS011;41070;50.360;18.742;2023-09-19T12:39:51;3.10;;;2.50;;
55190;SDS011;41070;50.360;18.742;2023-09-19T12:42:21;2.50;;;2.10;;
55190;SDS011;41070;50.360;18.742;2023-09-19T12:44:50;3.70;;;2.30;;
55190;SDS011;41070;50.360;18.742;2023-09-19T12:47:22;2.00;;;1.80;;
55190;SDS011;41070;50.360;18.742;2023-09-19T12:50:07;2.80;;;1.50;;
55190;SDS011;41070;50.360;18.742;2023-09-19T12:52:44;2.80;;;2.00;;
55190;SDS011;41070;50.360;18.742;2023-09-19T12:55:20;2.70;;;1.90;;
55190;SDS011;41070;50.360;18.742;2023-09-19T12:57:56;2.00;;;1.80;;
55190;SDS011;41070;50.360;18.742;2023-09-19T13:00:38;2.00;;;1.50;;
55190;SDS011;41070;50.360;18.742;2023-09-19T13:08:25;2.00;;;1.60;;
55190;SDS011;41070;50.360;18.742;2023-09-19T13:11:09;3.60;;;1.50;;
55190;SDS011;41070;50.360;18.742;2023-09-19T13:16:16;2.60;;;1.30;;
55190;SDS011;41070;50.360;18.742;2023-09-19T13:22:04;2.70;;;1.50;;
55190;SDS011;41070;50.360;18.742;2023-09-19T13:24:32;3.40;;;1.70;;
55190;SDS011;41070;50.360;18.742;2023-09-19T13:27:01;2.90;;;1.60;;
55190;SDS011;41070;50.360;18.742;2023-09-19T13:29:30;4.30;;;2.10;;
55190;SDS011;41070;50.360;18.742;2023-09-19T13:31:58;4.00;;;1.80;;
55190;SDS011;41070;50.360;18.742;2023-09-19T13:34:26;4.10;;;1.90;;
55190;SDS011;41070;50.360;18.742;2023-09-19T13:36:55;2.80;;;1.90;;
55190;SDS011;41070;50.360;18.742;2023-09-19T13:39:24;2.60;;;1.60;;
55190;SDS011;41070;50.360;18.742;2023-09-19T13:41:52;1.90;;;1.50;;
55190;SDS011;41070;50.360;18.742;2023-09-19T13:44:40;2.60;;;1.60;;
55190;SDS011;41070;50.360;18.742;2023-09-19T13:47:08;1.90;;;1.70;;
55190;SDS011;41070;50.360;18.742;2023-09-19T13:49:37;5.10;;;2.00;;
55190;SDS011;41070;50.360;18.742;2023-09-19T13:52:05;3.00;;;2.10;;
55190;SDS011;41070;50.360;18.742;2023-09-19T13:54:33;3.70;;;1.90;;
55190;SDS011;41070;50.360;18.742;2023-09-19T13:57:01;3.10;;;2.30;;
55190;SDS011;41070;50.360;18.742;2023-09-19T13:59:28;2.60;;;1.90;;
55190;SDS011;41070;50.360;18.742;2023-09-19T14:01:58;3.20;;;1.90;;
55190;SDS011;41070;50.360;18.742;2023-09-19T14:04:25;3.10;;;1.80;;
55190;SDS011;41070;50.360;18.742;2023-09-19T14:07:08;3.30;;;1.60;;
55190;SDS011;41070;50.360;18.742;2023-09-19T14:09:41;2.40;;;2.10;;
55190;SDS011;41070;50.360;18.742;2023-09-19T14:12:13;2.50;;;1.60;;
55190;SDS011;41070;50.360;18.742;2023-09-19T14:14:51;2.80;;;1.50;;
55190;SDS011;41070;50.360;18.742;2023-09-19T14:17:24;3.10;;;1.80;;
55190;SDS011;41070;50.360;18.742;2023-09-19T14:19:55;2.60;;;1.60;;
55190;SDS011;41070;50.360;18.742;2023-09-19T14:22:23;2.30;;;1.60;;
55190;SDS011;41070;50.360;18.742;2023-09-19T14:24:54;2.70;;;1.50;;
55190;SDS011;41070;50.360;18.742;2023-09-19T14:27:21;1.40;;;1.30;;
55190;SDS011;41070;50.360;18.742;2023-09-19T14:29:49;3.40;;;1.40;;
55190;SDS011;41070;50.360;18.742;2023-09-19T14:32:17;2.40;;;1.20;;
55190;SDS011;41070;50.360;18.742;2023-09-19T14:34:45;2.50;;;1.30;;
55190;SDS011;41070;50.360;18.742;2023-09-19T14:37:13;2.00;;;1.30;;
55190;SDS011;41070;50.360;18.742;2023-09-19T14:39:42;1.40;;;1.10;;
55190;SDS011;41070;50.360;18.742;2023-09-19T14:42:11;2.10;;;1.00;;
55190;SDS011;41070;50.360;18.742;2023-09-19T14:44:38;2.40;;;1.10;;
55190;SDS011;41070;50.360;18.742;2023-09-19T14:47:06;1.50;;;0.90;;
55190;SDS011;41070;50.360;18.742;2023-09-19T14:49:34;1.00;;;0.90;;
55190;SDS011;41070;50.360;18.742;2023-09-19T14:52:07;1.70;;;1.10;;
55190;SDS011;41070;50.360;18.742;2023-09-19T14:54:36;2.80;;;1.50;;
55190;SDS011;41070;50.360;18.742;2023-09-19T14:57:07;3.80;;;0.90;;
55190;SDS011;41070;50.360;18.742;2023-09-19T14:59:35;1.20;;;0.80;;
55190;SDS011;41070;50.360;18.742;2023-09-19T15:02:04;1.80;;;0.90;;
55190;SDS011;41070;50.360;18.742;2023-09-19T15:04:34;2.00;;;1.00;;
55190;SDS011;41070;50.360;18.742;2023-09-19T15:07:03;0.70;;;0.70;;
55190;SDS011;41070;50.360;18.742;2023-09-19T15:09:31;1.10;;;0.70;;
55190;SDS011;41070;50.360;18.742;2023-09-19T15:12:01;1.80;;;0.90;;
55190;SDS011;41070;50.360;18.742;2023-09-19T15:14:28;2.50;;;1.00;;
55190;SDS011;41070;50.360;18.742;2023-09-19T15:16:56;0.90;;;0.80;;
55190;SDS011;41070;50.360;18.742;2023-09-19T15:19:24;0.90;;;0.70;;
55190;SDS011;41070;50.360;18.742;2023-09-19T15:21:52;2.90;;;1.10;;
55190;SDS011;41070;50.360;18.742;2023-09-19T15:24:19;2.30;;;1.40;;
55190;SDS011;41070;50.360;18.742;2023-09-19T15:26:47;2.70;;;1.50;;
55190;SDS011;41070;50.360;18.742;2023-09-19T15:29:18;1.10;;;1.00;;
55190;SDS011;41070;50.360;18.742;2023-09-19T15:31:46;1.80;;;1.20;;
55190;SDS011;41070;50.360;18.742;2023-09-19T15:34:14;1.60;;;1.10;;
55190;SDS011;41070;50.360;18.742;2023-09-19T15:36:42;0.70;;;0.70;;
55190;SDS011;41070;50.360;18.742;2023-09-19T15:39:10;1.10;;;0.70;;
55190;SDS011;41070;50.360;18.742;2023-09-19T15:41:39;1.40;;;0.60;;
55190;SDS011;41070;50.360;18.742;2023-09-19T15:44:12;1.10;;;0.90;;
55190;SDS011;41070;50.360;18.742;2023-09-19T15:46:41;3.10;;;1.20;;
55190;SDS011;41070;50.360;18.742;2023-09-19T15:49:11;1.80;;;1.00;;
55190;SDS011;41070;50.360;18.742;2023-09-19T15:51:39;2.90;;;0.80;;
55190;SDS011;41070;50.360;18.742;2023-09-19T15:54:07;1.30;;;1.00;;
55190;SDS011;41070;50.360;18.742;2023-09-19T15:56:37;3.60;;;1.10;;
55190;SDS011;41070;50.360;18.742;2023-09-19T15:59:08;2.30;;;1.20;;
55190;SDS011;41070;50.360;18.742;2023-09-19T16:01:38;2.50;;;1.20;;
55190;SDS011;41070;50.360;18.742;2023-09-19T16:04:09;1.80;;;1.20;;
55190;SDS011;41070;50.360;18.742;2023-09-19T16:06:38;2.10;;;1.60;;
55190;SDS011;41070;50.360;18.742;2023-09-19T16:09:06;3.50;;;1.70;;
55190;SDS011;41070;50.360;18.742;2023-09-19T16:11:35;2.60;;;1.10;;
55190;SDS011;41070;50.360;18.742;2023-09-19T16:14:04;1.40;;;1.00;;
55190;SDS011;41070;50.360;18.742;2023-09-19T16:16:32;1.20;;;0.90;;
55190;SDS011;41070;50.360;18.742;2023-09-19T16:19:02;3.20;;;1.10;;
55190;SDS011;41070;50.360;18.742;2023-09-19T16:21:32;1.30;;;1.20;;
55190;SDS011;41070;50.360;18.742;2023-09-19T16:24:01;2.30;;;1.30;;
55190;SDS011;41070;50.360;18.742;2023-09-19T16:26:32;1.30;;;1.00;;
55190;SDS011;41070;50.360;18.742;2023-09-19T16:29:00;1.40;;;1.10;;
55190;SDS011;41070;50.360;18.742;2023-09-19T16:31:29;1.30;;;0.90;;
55190;SDS011;41070;50.360;18.742;2023-09-19T16:33:59;1.40;;;1.30;;
55190;SDS011;41070;50.360;18.742;2023-09-19T16:36:26;2.00;;;1.20;;
55190;SDS011;41070;50.360;18.742;2023-09-19T16:38:55;2.10;;;1.40;;
55190;SDS011;41070;50.360;18.742;2023-09-19T16:41:23;3.80;;;1.90;;
55190;SDS011;41070;50.360;18.742;2023-09-19T16:43:53;5.50;;;1.80;;
55190;SDS011;41070;50.360;18.742;2023-09-19T16:46:21;4.80;;;2.40;;
55190;SDS011;41070;50.360;18.742;2023-09-19T16:48:50;3.80;;;1.90;;
55190;SDS011;41070;50.360;18.742;2023-09-19T16:51:21;1.90;;;1.60;;
55190;SDS011;41070;50.360;18.742;2023-09-19T16:53:49;4.50;;;2.40;;
55190;SDS011;41070;50.360;18.742;2023-09-19T16:56:18;3.00;;;1.80;;
55190;SDS011;41070;50.360;18.742;2023-09-19T16:58:47;4.70;;;2.60;;
55190;SDS011;41070;50.360;18.742;2023-09-19T17:01:18;9.20;;;5.70;;
55190;SDS011;41070;50.360;18.742;2023-09-19T17:03:46;10.30;;;5.50;;
55190;SDS011;41070;50.360;18.742;2023-09-19T17:06:14;7.90;;;3.30;;
55190;SDS011;41070;50.360;18.742;2023-09-19T17:08:43;7.60;;;3.30;;
55190;SDS011;41070;50.360;18.742;2023-09-19T17:11:12;4.20;;;2.60;;
55190;SDS011;41070;50.360;18.742;2023-09-19T17:13:42;3.60;;;2.10;;
55190;SDS011;41070;50.360;18.742;2023-09-19T17:16:13;3.70;;;2.20;;
55190;SDS011;41070;50.360;18.742;2023-09-19T17:18:50;2.40;;;1.90;;
55190;SDS011;41070;50.360;18.742;2023-09-19T17:21:20;2.30;;;1.90;;
55190;SDS011;41070;50.360;18.742;2023-09-19T17:23:48;2.40;;;1.70;;
55190;SDS011;41070;50.360;18.742;2023-09-19T17:26:15;3.50;;;1.90;;
55190;SDS011;41070;50.360;18.742;2023-09-19T17:28:45;2.60;;;1.50;;
55190;SDS011;41070;50.360;18.742;2023-09-19T17:31:14;3.10;;;1.90;;
55190;SDS011;41070;50.360;18.742;2023-09-19T17:33:45;4.20;;;1.90;;
55190;SDS011;41070;50.360;18.742;2023-09-19T17:38:42;1.70;;;1.40;;
55190;SDS011;41070;50.360;18.742;2023-09-19T17:41:11;2.10;;;1.60;;
55190;SDS011;41070;50.360;18.742;2023-09-19T17:43:42;4.80;;;1.70;;
55190;SDS011;41070;50.360;18.742;2023-09-19T17:46:17;3.70;;;2.00;;
55190;SDS011;41070;50.360;18.742;2023-09-19T17:48:45;2.00;;;1.50;;
55190;SDS011;41070;50.360;18.742;2023-09-19T17:51:20;1.60;;;1.40;;
55190;SDS011;41070;50.360;18.742;2023-09-19T17:53:48;3.30;;;1.70;;
55190;SDS011;41070;50.360;18.742;2023-09-19T17:56:16;3.00;;;2.00;;
55190;SDS011;41070;50.360;18.742;2023-09-19T17:58:45;5.80;;;4.70;;
55190;SDS011;41070;50.360;18.742;2023-09-19T18:01:15;4.90;;;3.60;;
55190;SDS011;41070;50.360;18.742;2023-09-19T18:03:46;5.00;;;3.10;;
55190;SDS011;41070;50.360;18.742;2023-09-19T18:06:15;5.80;;;4.70;;
55190;SDS011;41070;50.360;18.742;2023-09-19T18:08:45;5.70;;;4.10;;
55190;SDS011;41070;50.360;18.742;2023-09-19T18:11:15;4.00;;;2.80;;
55190;SDS011;41070;50.360;18.742;2023-09-19T18:13:47;2.90;;;2.00;;
55190;SDS011;41070;50.360;18.742;2023-09-19T18:16:22;3.00;;;2.70;;
55190;SDS011;41070;50.360;18.742;2023-09-19T18:18:50;3.30;;;2.60;;
55190;SDS011;41070;50.360;18.742;2023-09-19T18:21:19;4.00;;;2.50;;
55190;SDS011;41070;50.360;18.742;2023-09-19T18:23:55;2.70;;;2.30;;
55190;SDS011;41070;50.360;18.742;2023-09-19T18:26:30;3.90;;;3.00;;
55190;SDS011;41070;50.360;18.742;2023-09-19T18:28:57;3.80;;;2.70;;
55190;SDS011;41070;50.360;18.742;2023-09-19T18:31:26;6.00;;;3.20;;
55190;SDS011;41070;50.360;18.742;2023-09-19T18:33:55;9.50;;;3.30;;